Time;durP1;ratioP1;P1;durP2;ratioP2;P2;SDS_P1;SDS_P2;PMS_P1;PMS_P2;Temp;Humidity;BMP_temperature;BMP_pressure;BME280_temperature;BME280_humidity;BME280_pressure;Samples;Min_cycle;Max_cycle;Signal;HPM_P1;HPM_P2
2023/08/28 00:04:12;;;;;;;16.77;11.70;;;;;;;26.52;53.91;99387.66;41567693;28;20887;-74
2023/08/28 00:24:12;;;;;;;12.32;10.70;;;;;;;26.55;53.29;99378.50;41571679;28;20111;-75
2023/08/28 00:44:13;;;;;;;9.73;8.52;;;;;;;26.24;53.75;99358.16;41590550;28;20672;-77
2023/08/28 01:04:13;;;;;;;10.10;7.80;;;;;;;25.77;55.94;99369.69;41561844;28;20034;-76
2023/08/28 01:24:19;;;;;;;7.85;6.53;;;;;;;25.78;56.12;99353.63;41563154;28;20046;-76
2023/08/28 01:44:22;;;;;;;5.70;5.00;;;;;;;25.50;56.32;99332.91;41566146;28;20053;-76
2023/08/28 02:04:22;;;;;;;6.90;5.40;;;;;;;25.30;56.59;99316.53;41561028;28;20081;-76
2023/08/28 02:24:22;;;;;;;5.60;5.00;;;;;;;25.33;57.59;99366.56;41572008;28;20136;-76
2023/08/28 02:44:23;;;;;;;6.50;5.10;;;;;;;25.09;57.67;99373.56;41572266;28;20049;-76
2023/08/28 03:04:23;;;;;;;8.75;4.85;;;;;;;24.82;58.01;99373.97;41571438;28;20128;-73
2023/08/28 03:24:24;;;;;;;7.10;5.18;;;;;;;24.54;57.84;99348.63;41566141;28;20041;-76
2023/08/28 03:44:24;;;;;;;8.85;5.50;;;;;;;24.59;58.22;99369.31;41566286;28;20054;-76
2023/08/28 04:04:27;;;;;;;9.55;5.90;;;;;;;24.02;58.80;99356.88;41565762;28;20048;-78
2023/08/28 04:24:27;;;;;;;6.70;5.60;;;;;;;24.14;59.47;99406.66;41585589;28;20113;-75
2023/08/28 04:44:28;;;;;;;7.32;5.03;;;;;;;24.89;56.37;99382.88;41579916;28;20049;-75
2023/08/28 05:04:39;;;;;;;11.75;5.68;;;;;;;24.40;57.65;99304.31;41577581;28;20112;-75
2023/08/28 05:24:40;;;;;;;10.68;6.00;;;;;;;25.29;57.00;99314.88;41620069;28;20053;-79
2023/08/28 05:44:41;;;;;;;7.78;6.15;;;;;;;25.16;57.79;99362.28;41656471;28;20078;-75
2023/08/28 06:04:46;;;;;;;12.82;6.70;;;;;;;25.22;58.01;99319.25;41568198;28;20037;-77
2023/08/28 06:24:52;;;;;;;9.68;6.20;;;;;;;25.90;55.78;99316.91;41545766;28;20041;-75
2023/08/28 06:44:53;;;;;;;11.93;6.40;;;;;;;26.24;55.12;99307.75;41589685;28;20076;-77
2023/08/28 07:04:54;;;;;;;11.80;6.20;;;;;;;26.37;55.02;99268.16;41589838;28;20037;-80
2023/08/28 07:24:55;;;;;;;9.52;6.63;;;;;;;26.59;54.24;99247.03;41573639;28;20054;-77
2023/08/28 07:44:55;;;;;;;16.02;7.22;;;;;;;26.90;54.27;99245.25;41645555;28;20484;-82
2023/08/28 08:04:56;;;;;;;12.35;7.10;;;;;;;26.98;54.48;99243.31;41661671;28;20128;-81
2023/08/28 08:24:56;;;;;;;14.65;7.75;;;;;;;27.26;53.41;99247.94;41644070;28;20055;-77
2023/08/28 08:44:57;;;;;;;9.50;7.45;;;;;;;27.39;52.74;99203.91;41661837;28;20228;-79
2023/08/28 09:04:59;;;;;;;10.35;7.00;;;;;;;27.41;50.90;99172.66;41674594;28;20050;-78
2023/08/28 09:24:59;;;;;;;10.93;6.25;;;;;;;27.48;50.88;99160.28;41610289;28;20109;-80
2023/08/28 09:45:04;;;;;;;9.93;6.88;;;;;;;27.58;50.68;99159.94;41627284;28;20050;-76
2023/08/28 10:05:08;;;;;;;9.27;6.68;;;;;;;27.78;50.33;99149.47;41610271;28;20061;-77
2023/08/28 10:25:08;;;;;;;11.45;6.70;;;;;;;27.92;50.15;99127.28;41622448;28;20132;-76
2023/08/28 10:45:09;;;;;;;12.30;6.32;;;;;;;28.34;50.27;99092.72;41611175;28;20152;-79
2023/08/28 11:05:14;;;;;;;10.20;6.40;;;;;;;28.56;49.54;99076.66;41685200;28;20054;-77
2023/08/28 11:25:35;;;;;;;10.70;5.90;;;;;;;28.94;48.29;99073.50;41626303;28;20125;-74
2023/08/28 11:45:36;;;;;;;;;;;;;;;29.11;47.76;99049.13;41619748;28;20046;-76
2023/08/28 12:05:36;;;;;;;9.77;5.47;;;;;;;28.83;48.44;98979.03;41629402;28;19925;-82
2023/08/28 12:25:40;;;;;;;8.10;5.13;;;;;;;29.13;49.15;98969.81;41682600;28;20050;-78
2023/08/28 12:45:42;;;;;;;7.03;4.60;;;;;;;29.49;49.05;98968.53;41680363;28;20041;-79
2023/08/28 13:05:42;;;;;;;5.95;4.70;;;;;;;29.41;49.04;98913.59;41654030;28;20041;-78
2023/08/28 13:25:43;;;;;;;9.85;4.72;;;;;;;29.59;48.23;98912.09;41706454;28;20034;-80
2023/08/28 13:45:50;;;;;;;10.20;5.78;;;;;;;29.61;47.72;98859.38;41695037;28;20484;-78
2023/08/28 14:05:52;;;;;;;11.27;4.95;;;;;;;29.61;47.64;98830.84;41713509;28;20064;-80
2023/08/28 14:25:52;;;;;;;8.80;4.72;;;;;;;29.58;48.03;98820.59;41715364;28;20045;-80
2023/08/28 14:45:53;;;;;;;;;;;;;;;29.83;49.53;98838.53;41643833;28;20041;-77
2023/08/28 15:05:54;;;;;;;8.18;4.18;;;;;;;29.63;49.95;98812.78;41638924;28;19965;-79
2023/08/28 15:25:55;;;;;;;;;;;;;;;29.74;49.88;98805.94;41658838;28;20060;-80
2023/08/28 15:45:56;;;;;;;;;;;;;;;29.78;49.60;98788.47;41661335;28;19979;-84
2023/08/28 16:05:57;;;;;;;8.00;3.85;;;;;;;29.40;49.67;98738.66;41661283;28;19924;-82
2023/08/28 16:25:57;;;;;;;;;;;;;;;29.70;50.96;98778.09;41614855;28;20128;-80
2023/08/28 16:45:58;;;;;;;;;;;;;;;29.63;50.79;98778.09;41616658;28;20356;-77
2023/08/28 17:05:59;;;;;;;5.40;3.23;;;;;;;29.21;50.74;98719.00;41647939;28;19925;-79
2023/08/28 17:26:00;;;;;;;4.50;3.33;;;;;;;29.30;51.23;98735.63;41604195;28;20077;-84
2023/08/28 17:46:01;;;;;;;5.38;4.20;;;;;;;29.44;51.07;98737.16;41601930;28;20041;-83
2023/08/28 18:06:02;;;;;;;10.65;4.55;;;;;;;29.56;49.20;98723.97;41597471;28;20096;-81
2023/08/28 18:26:09;;;;;;;;;;;;;;;29.54;45.13;98712.72;41660436;28;20166;-84
2023/08/28 18:46:10;;;;;;;14.25;4.78;;;;;;;29.48;42.29;98701.06;41635000;28;19928;-82
2023/08/28 19:06:11;;;;;;;9.80;4.75;;;;;;;29.35;43.56;98719.81;41595454;28;20057;-83
2023/08/28 19:26:12;;;;;;;9.33;4.80;;;;;;;29.33;42.17;98713.88;41577058;28;20045;-81
2023/08/28 19:46:13;;;;;;;11.27;4.10;;;;;;;29.19;41.35;98697.09;41581130;28;20054;-79
2023/08/28 20:06:14;;;;;;;9.95;4.45;;;;;;;29.18;41.05;98722.13;41548475;28;20049;-77
2023/08/28 20:26:16;;;;;;;13.43;4.38;;;;;;;28.92;41.58;98716.69;41552175;28;20053;-75
2023/08/28 20:46:16;;;;;;;8.57;3.78;;;;;;;28.95;39.87;98728.75;41557910;28;20079;-76
2023/08/28 21:06:17;;;;;;;6.97;3.43;;;;;;;28.64;39.13;98804.00;41576875;28;20299;-78
2023/08/28 21:26:18;;;;;;;14.67;5.50;;;;;;;27.93;43.03;98878.03;41586846;28;20893;-77
2023/08/28 21:46:19;;;;;;;8.07;4.32;;;;;;;27.62;44.25;98949.31;41574255;28;20080;-76
2023/08/28 22:06:19;;;;;;;10.25;4.68;;;;;;;27.56;45.27;98957.25;41573347;28;20045;-78
2023/08/28 22:26:20;;;;;;;16.15;5.95;;;;;;;27.05;45.83;98998.13;41557676;28;20048;-78
2023/08/28 22:46:20;;;;;;;9.50;5.47;;;;;;;26.98;47.00;99064.50;41554728;28;20057;-75
2023/08/28 23:06:21;;;;;;;11.23;5.28;;;;;;;27.76;45.97;98979.44;41543428;28;20045;-75
2023/08/28 23:26:27;;;;;;;11.73;4.63;;;;;;;27.89;46.55;98944.13;41543391;28;20593;-77
2023/08/28 23:46:27;;;;;;;13.07;4.50;;;;;;;28.21;47.21;98930.31;41575085;28;21297;-75
